Time;durP1;ratioP1;P1;durP2;ratioP2;P2;SDS_P1;SDS_P2;PMS_P1;PMS_P2;Temp;Humidity;BMP_temperature;BMP_pressure;BME280_temperature;BME280_humidity;BME280_pressure;Samples;Min_cycle;Max_cycle;Signal;HPM_P1;HPM_P2
2021/11/08 00:00:28;;;;;;;2.37;1.40;;;;;;;;;;5060970;28;20546;-66
2021/11/08 00:03:01;;;;;;;2.63;1.20;;;;;;;;;;5066749;28;20211;-66
2021/11/08 00:05:45;;;;;;;2.73;1.20;;;;;;;;;;5063441;28;20222;-66
2021/11/08 00:08:16;;;;;;;3.43;2.00;;;;;;;;;;5062949;28;20791;-66
2021/11/08 00:10:48;;;;;;;2.07;1.40;;;;;;;;;;5047654;28;20227;-66
2021/11/08 00:13:18;;;;;;;2.40;1.40;;;;;;;;;;5043458;28;20222;-65
2021/11/08 00:19:14;;;;;;;3.67;1.47;;;;;;;;;;5061059;28;20613;-65
2021/11/08 00:21:33;;;;;;;2.20;1.47;;;;;;;;;;5061003;28;20210;-66
2021/11/08 00:24:13;;;;;;;2.90;1.47;;;;;;;;;;5065295;28;20208;-66
2021/11/08 00:26:45;;;;;;;3.27;1.23;;;;;;;;;;5064926;28;20284;-66
2021/11/08 00:29:16;;;;;;;3.07;1.70;;;;;;;;;;5067107;28;20212;-66
2021/11/08 00:31:48;;;;;;;2.07;1.40;;;;;;;;;;5065781;28;20205;-65
2021/11/08 00:34:18;;;;;;;3.03;1.63;;;;;;;;;;5056056;28;20265;-66
2021/11/08 00:36:50;;;;;;;2.93;1.40;;;;;;;;;;5047865;28;20574;-66
2021/11/08 00:39:23;;;;;;;3.33;1.93;;;;;;;;;;5060444;28;20215;-66
2021/11/08 00:41:54;;;;;;;3.23;1.80;;;;;;;;;;5065250;28;20206;-66
2021/11/08 00:44:25;;;;;;;3.27;1.33;;;;;;;;;;5041428;28;20707;-66
2021/11/08 00:46:53;;;;;;;3.57;1.43;;;;;;;;;;5060062;28;20210;-66
2021/11/08 00:49:27;;;;;;;3.00;1.40;;;;;;;;;;5067711;28;20702;-65
2021/11/08 00:52:11;;;;;;;3.67;1.73;;;;;;;;;;5061154;28;20267;-65
2021/11/08 00:54:41;;;;;;;3.43;1.70;;;;;;;;;;5067093;28;20215;-65
2021/11/08 00:57:19;;;;;;;1.97;1.23;;;;;;;;;;5054806;28;20624;-65
2021/11/08 00:59:51;;;;;;;3.40;1.70;;;;;;;;;;5050374;28;20290;-65
2021/11/08 01:02:26;;;;;;;2.50;1.57;;;;;;;;;;5060210;28;20726;-65
2021/11/08 01:05:00;;;;;;;2.87;1.40;;;;;;;;;;5063177;28;20217;-65
2021/11/08 01:07:31;;;;;;;2.33;1.43;;;;;;;;;;5045677;28;20525;-66
2021/11/08 01:09:59;;;;;;;3.43;1.97;;;;;;;;;;5063944;28;20230;-65
2021/11/08 01:12:42;;;;;;;2.97;1.63;;;;;;;;;;5057299;28;20273;-65
2021/11/08 01:15:13;;;;;;;3.10;1.50;;;;;;;;;;5045102;28;20205;-65
2021/11/08 01:17:46;;;;;;;2.20;1.50;;;;;;;;;;5062629;28;20206;-65
2021/11/08 01:20:20;;;;;;;2.80;1.63;;;;;;;;;;5055993;28;20204;-66
2021/11/08 01:22:51;;;;;;;3.03;1.40;;;;;;;;;;5044908;28;20229;-65
2021/11/08 01:25:24;;;;;;;2.60;1.53;;;;;;;;;;5064821;28;20213;-65
2021/11/08 01:27:57;;;;;;;3.00;1.47;;;;;;;;;;5061360;28;20196;-66
2021/11/08 01:30:29;;;;;;;3.93;1.73;;;;;;;;;;5060792;28;20539;-66
2021/11/08 01:33:14;;;;;;;3.20;1.47;;;;;;;;;;5064247;28;20213;-65
2021/11/08 01:35:58;;;;;;;3.00;1.80;;;;;;;;;;5056741;28;20729;-65
2021/11/08 01:41:23;;;;;;;4.57;1.63;;;;;;;;;;5039557;28;20285;-66
2021/11/08 01:44:07;;;;;;;2.67;1.77;;;;;;;;;;5029858;28;20642;-66
2021/11/08 01:46:39;;;;;;;3.73;1.90;;;;;;;;;;5020463;28;20199;-66
2021/11/08 01:49:24;;;;;;;2.53;1.50;;;;;;;;;;5044748;28;20190;-66
2021/11/08 01:51:55;;;;;;;3.23;1.53;;;;;;;;;;5018874;28;20257;-66
2021/11/08 01:54:32;;;;;;;4.73;1.60;;;;;;;;;;5035397;28;20825;-66
2021/11/08 01:56:59;;;;;;;2.63;1.67;;;;;;;;;;5029018;28;20198;-66
2021/11/08 01:59:32;;;;;;;3.20;1.87;;;;;;;;;;5041075;28;20650;-66
2021/11/08 02:02:04;;;;;;;2.73;1.77;;;;;;;;;;5029986;28;20252;-66
2021/11/08 02:04:34;;;;;;;3.70;1.60;;;;;;;;;;5039116;28;20229;-66
2021/11/08 02:07:11;;;;;;;4.97;2.03;;;;;;;;;;5047309;28;20193;-65
2021/11/08 02:09:50;;;;;;;3.20;1.63;;;;;;;;;;5038491;28;20218;-66
2021/11/08 02:12:20;;;;;;;3.10;1.70;;;;;;;;;;5045319;28;20198;-65
2021/11/08 02:15:03;;;;;;;3.83;1.70;;;;;;;;;;5040979;28;20257;-65
2021/11/08 02:17:49;;;;;;;3.40;1.60;;;;;;;;;;5042980;28;20230;-66
2021/11/08 02:20:28;;;;;;;2.33;1.50;;;;;;;;;;5036956;28;20190;-65
2021/11/08 02:23:02;;;;;;;3.67;2.00;;;;;;;;;;5042649;28;20202;-66
2021/11/08 02:25:35;;;;;;;3.33;1.87;;;;;;;;;;5037321;28;20183;-66
2021/11/08 02:28:07;;;;;;;4.27;1.90;;;;;;;;;;5035520;28;20217;-65
2021/11/08 02:30:44;;;;;;;3.53;1.77;;;;;;;;;;5031405;28;20201;-66
2021/11/08 02:33:18;;;;;;;4.03;1.60;;;;;;;;;;5034275;28;20234;-66
2021/11/08 02:35:52;;;;;;;3.27;1.60;;;;;;;;;;5038418;28;20202;-66
2021/11/08 02:38:31;;;;;;;2.23;1.40;;;;;;;;;;5056581;28;20206;-66
2021/11/08 02:41:08;;;;;;;3.20;1.63;;;;;;;;;;5053228;28;20190;-66
2021/11/08 02:43:40;;;;;;;2.63;1.80;;;;;;;;;;5054375;28;20202;-66
2021/11/08 02:46:17;;;;;;;2.93;1.80;;;;;;;;;;5062989;28;20206;-65
2021/11/08 02:48:51;;;;;;;4.27;1.70;;;;;;;;;;5040920;28;20213;-66
2021/11/08 02:51:29;;;;;;;3.83;1.80;;;;;;;;;;5039647;28;20274;-66
2021/11/08 02:54:04;;;;;;;3.67;2.00;;;;;;;;;;5061267;28;20676;-66
2021/11/08 02:56:45;;;;;;;4.47;1.73;;;;;;;;;;5041230;28;20213;-65
2021/11/08 02:59:20;;;;;;;3.13;2.00;;;;;;;;;;5055510;28;20212;-66
2021/11/08 03:01:53;;;;;;;3.93;2.17;;;;;;;;;;5058529;28;20247;-65
2021/11/08 03:04:41;;;;;;;2.50;1.60;;;;;;;;;;5057389;28;20539;-65
2021/11/08 03:07:12;;;;;;;3.33;1.83;;;;;;;;;;5060684;28;20681;-65
2021/11/08 03:09:45;;;;;;;3.27;1.67;;;;;;;;;;5064804;28;20221;-65
2021/11/08 03:12:27;;;;;;;3.00;2.00;;;;;;;;;;5053245;28;20276;-66
2021/11/08 03:15:12;;;;;;;2.57;1.53;;;;;;;;;;5050626;28;20246;-65
2021/11/08 03:17:43;;;;;;;3.47;1.93;;;;;;;;;;5057662;28;20208;-65
2021/11/08 03:20:17;;;;;;;2.23;1.67;;;;;;;;;;5050466;28;20218;-65
2021/11/08 03:22:54;;;;;;;4.23;2.07;;;;;;;;;;5057900;28;20296;-65
2021/11/08 03:25:57;;;;;;;4.43;2.13;;;;;;;;;;5059622;28;20276;-66
2021/11/08 03:28:19;;;;;;;4.03;2.20;;;;;;;;;;5042358;28;20197;-65
2021/11/08 03:30:51;;;;;;;5.60;2.40;;;;;;;;;;5044411;28;20235;-65
2021/11/08 03:33:32;;;;;;;3.70;1.67;;;;;;;;;;5061643;28;20311;-65
2021/11/08 03:36:15;;;;;;;5.10;1.77;;;;;;;;;;5055999;28;20240;-65
2021/11/08 03:38:45;;;;;;;3.60;2.07;;;;;;;;;;5066607;28;20198;-65
2021/11/08 03:41:17;;;;;;;3.97;2.20;;;;;;;;;;5056585;28;20218;-65
2021/11/08 03:43:48;;;;;;;2.83;2.00;;;;;;;;;;5058183;28;20209;-66
2021/11/08 03:46:18;;;;;;;2.93;2.13;;;;;;;;;;5046997;28;20233;-66
2021/11/08 03:48:47;;;;;;;3.67;2.00;;;;;;;;;;5064909;28;20200;-66
2021/11/08 03:51:20;;;;;;;2.90;1.83;;;;;;;;;;5044945;28;20275;-66
2021/11/08 03:53:50;;;;;;;4.03;2.10;;;;;;;;;;5065175;28;20221;-66
2021/11/08 03:56:25;;;;;;;5.60;2.03;;;;;;;;;;5059041;28;20213;-66
2021/11/08 03:58:57;;;;;;;2.90;2.10;;;;;;;;;;5068483;28;20190;-65
2021/11/08 04:01:29;;;;;;;3.53;2.17;;;;;;;;;;5066267;28;20191;-65
2021/11/08 04:04:01;;;;;;;4.57;2.33;;;;;;;;;;5044274;28;20201;-66
2021/11/08 04:06:33;;;;;;;3.63;2.03;;;;;;;;;;5056234;28;20210;-65
2021/11/08 04:09:04;;;;;;;3.50;2.17;;;;;;;;;;5063071;28;20256;-65
2021/11/08 04:11:37;;;;;;;3.30;2.10;;;;;;;;;;5062483;28;20675;-65
2021/11/08 04:14:25;;;;;;;3.73;1.77;;;;;;;;;;5061434;28;20311;-65
2021/11/08 04:17:17;;;;;;;4.07;2.43;;;;;;;;;;5053393;28;20206;-65
2021/11/08 04:19:49;;;;;;;3.20;2.10;;;;;;;;;;5042366;28;20210;-65
2021/11/08 04:22:22;;;;;;;3.03;1.80;;;;;;;;;;5048320;28;20210;-65
2021/11/08 04:24:54;;;;;;;3.37;1.93;;;;;;;;;;5061181;28;20201;-65
2021/11/08 04:27:35;;;;;;;3.87;2.50;;;;;;;;;;5051322;28;20209;-65
2021/11/08 04:30:08;;;;;;;4.40;2.03;;;;;;;;;;5060630;28;20202;-65
2021/11/08 04:33:25;;;;;;;3.10;1.70;;;;;;;;;;5059625;28;20197;-65
2021/11/08 04:38:45;;;;;;;4.73;2.00;;;;;;;;;;4988917;28;20312;-66
2021/11/08 04:41:31;;;;;;;2.53;1.77;;;;;;;;;;5068973;28;20636;-66
2021/11/08 04:44:14;;;;;;;3.20;1.97;;;;;;;;;;5061122;28;20873;-66
2021/11/08 04:49:59;;;;;;;3.40;2.00;;;;;;;;;;5046827;28;20190;-66
2021/11/08 05:31:52;;;;;;;3.90;1.90;;;;;;;;;;5056089;28;20186;-66
2021/11/08 05:34:22;;;;;;;4.70;2.90;;;;;;;;;;5056489;28;20256;-66
2021/11/08 05:36:51;;;;;;;4.90;2.17;;;;;;;;;;5059891;28;20244;-66
2021/11/08 05:39:23;;;;;;;3.00;2.10;;;;;;;;;;5060372;28;20272;-66
2021/11/08 05:41:57;;;;;;;3.83;2.17;;;;;;;;;;5061454;28;20206;-66
2021/11/08 05:44:41;;;;;;;3.73;2.37;;;;;;;;;;5057138;28;20316;-66
2021/11/08 05:47:14;;;;;;;4.27;2.10;;;;;;;;;;5063379;28;20204;-66
2021/11/08 05:49:58;;;;;;;4.70;2.73;;;;;;;;;;5054633;28;20275;-66
2021/11/08 05:52:30;;;;;;;3.93;2.27;;;;;;;;;;5060583;28;20286;-66
2021/11/08 05:55:02;;;;;;;4.77;2.33;;;;;;;;;;5067164;28;20218;-66
2021/11/08 06:49:29;;;;;;;19.60;6.20;;;;;;;;;;5055830;28;20614;-70
2021/11/08 06:52:01;;;;;;;20.03;5.83;;;;;;;;;;5069728;28;20212;-69
2021/11/08 06:54:35;;;;;;;19.50;5.80;;;;;;;;;;5060962;28;20656;-69
2021/11/08 06:57:30;;;;;;;13.17;5.20;;;;;;;;;;5053422;28;20293;-69
2021/11/08 06:59:59;;;;;;;20.60;6.00;;;;;;;;;;5061956;28;20233;-68
2021/11/08 07:02:57;;;;;;;;;;;;;;;;;;5064013;28;20056;-69
2021/11/08 07:05:24;;;;;;;;;;;;;;;;;;5065851;28;19916;-73
2021/11/08 07:07:54;;;;;;;;;;;;;;;;;;5045214;28;19973;-72
2021/11/08 07:10:25;;;;;;;;;;;;;;;;;;5050650;28;19927;-73
2021/11/08 07:12:55;;;;;;;;;;;;;;;;;;5063046;28;19927;-71
2021/11/08 07:15:26;;;;;;;;;;;;;;;;;;5061027;28;19904;-69
2021/11/08 07:17:56;;;;;;;;;;;;;;;;;;5062615;28;19925;-70
2021/11/08 07:20:38;;;;;;;;;;;;;;;;;;5055605;28;19968;-72
2021/11/08 07:23:07;;;;;;;;;;;;;;;;;;5065060;28;19920;-72
2021/11/08 07:25:37;;;;;;;;;;;;;;;;;;5066157;28;19939;-70
2021/11/08 07:28:10;;;;;;;;;;;;;;;;;;5058841;28;19932;-72
2021/11/08 07:30:44;;;;;;;;;;;;;;;;;;5059334;28;20633;-73
2021/11/08 07:33:19;;;;;;;;;;;;;;;;;;5065113;28;19943;-70
2021/11/08 07:35:48;;;;;;;;;;;;;;;;;;5059654;28;20050;-75
2021/11/08 07:38:18;;;;;;;;;;;;;;;;;;5047664;28;19920;-71
2021/11/08 07:40:49;;;;;;;;;;;;;;;;;;5062201;28;20285;-76
2021/11/08 07:43:19;;;;;;;;;;;;;;;;;;5061245;28;19924;-73
2021/11/08 07:45:51;;;;;;;;;;;;;;;;;;5058745;28;19920;-74
2021/11/08 07:48:21;;;;;;;;;;;;;;;;;;5059367;28;19920;-72
2021/11/08 07:50:52;;;;;;;;;;;;;;;;;;5065125;28;19920;-70
2021/11/08 07:53:23;;;;;;;;;;;;;;;;;;5067730;28;20326;-69
2021/11/08 07:55:52;;;;;;;;;;;;;;;;;;5067007;28;19928;-70
2021/11/08 07:58:23;;;;;;;;;;;;;;;;;;5063758;28;19928;-75
2021/11/08 08:00:55;;;;;;;;;;;;;;;;;;5061714;28;20517;-74
2021/11/08 08:03:28;;;;;;;;;;;;;;;;;;5071595;28;19920;-70
2021/11/08 08:05:58;;;;;;;;;;;;;;;;;;5056565;28;19930;-73
2021/11/08 08:08:29;;;;;;;;;;;;;;;;;;5061958;28;19921;-73
2021/11/08 08:10:58;;;;;;;;;;;;;;;;;;5061705;28;19920;-70
2021/11/08 08:13:29;;;;;;;;;;;;;;;;;;5059620;28;19934;-73
2021/11/08 08:15:59;;;;;;;;;;;;;;;;;;5061837;28;19927;-74
2021/11/08 08:18:30;;;;;;;;;;;;;;;;;;5053122;28;19925;-73
2021/11/08 08:21:00;;;;;;;;;;;;;;;;;;5056005;28;19925;-74
2021/11/08 08:23:31;;;;;;;;;;;;;;;;;;5061529;28;19935;-73
2021/11/08 08:26:04;;;;;;;;;;;;;;;;;;5063290;28;19955;-73
2021/11/08 08:28:34;;;;;;;;;;;;;;;;;;5060982;28;19927;-73
2021/11/08 08:31:06;;;;;;;;;;;;;;;;;;5057259;28;19929;-72
2021/11/08 08:33:37;;;;;;;;;;;;;;;;;;5058482;28;20014;-74
2021/11/08 08:36:07;;;;;;;;;;;;;;;;;;5059388;28;19928;-74
2021/11/08 08:38:38;;;;;;;;;;;;;;;;;;5061465;28;19920;-72
2021/11/08 08:41:10;;;;;;;;;;;;;;;;;;5065510;28;19946;-72
2021/11/08 08:43:40;;;;;;;;;;;;;;;;;;5061127;28;19920;-72
2021/11/08 08:46:08;;;;;;;;;;;;;;;;;;5056589;28;19921;-76
2021/11/08 08:48:38;;;;;;;;;;;;;;;;;;5063529;28;19921;-72
2021/11/08 08:51:07;;;;;;;;;;;;;;;;;;5061175;28;19932;-71
2021/11/08 08:53:36;;;;;;;;;;;;;;;;;;5057303;28;20382;-71
2021/11/08 08:56:19;;;;;;;;;;;;;;;;;;5060891;28;19928;-70
2021/11/08 08:58:50;;;;;;;;;;;;;;;;;;5061893;28;20442;-73
2021/11/08 09:01:21;;;;;;;;;;;;;;;;;;5058881;28;19935;-70
2021/11/08 09:03:50;;;;;;;;;;;;;;;;;;5063484;28;19924;-72
2021/11/08 09:06:20;;;;;;;;;;;;;;;;;;5058692;28;19927;-73
2021/11/08 09:08:51;;;;;;;;;;;;;;;;;;5059685;28;19967;-71
2021/11/08 09:11:23;;;;;;;;;;;;;;;;;;5066120;28;19920;-71
2021/11/08 09:14:00;;;;;;;;;;;;;;;;;;5061960;28;19920;-71
2021/11/08 09:16:29;;;;;;;;;;;;;;;;;;5058668;28;19932;-72
2021/11/08 09:19:01;;;;;;;;;;;;;;;;;;5064478;28;19924;-72
2021/11/08 09:21:30;;;;;;;;;;;;;;;;;;5060228;28;19924;-68
2021/11/08 09:24:01;;;;;;;;;;;;;;;;;;5061368;28;20382;-70
2021/11/08 09:26:30;;;;;;;;;;;;;;;;;;5059775;28;19931;-70
2021/11/08 09:29:00;;;;;;;;;;;;;;;;;;5061512;28;19940;-71
2021/11/08 09:31:27;;;;;;;;;;;;;;;;;;5064018;28;19920;-69
2021/11/08 09:34:10;;;;;;;;;;;;;;;;;;5061528;28;19936;-68
2021/11/08 09:36:42;;;;;;;;;;;;;;;;;;5057372;28;19921;-70
2021/11/08 09:39:19;;;;;;;;;;;;;;;;;;5042516;28;19925;-71
2021/11/08 09:42:00;;;;;;;;;;;;;;;;;;5044418;28;19924;-72
2021/11/08 09:44:35;;;;;;;;;;;;;;;;;;5035814;28;19924;-71
2021/11/08 09:47:05;;;;;;;;;;;;;;;;;;5041593;28;19927;-70
2021/11/08 09:49:36;;;;;;;;;;;;;;;;;;5038875;28;20325;-70
2021/11/08 09:52:07;;;;;;;;;;;;;;;;;;5043389;28;19924;-70
2021/11/08 09:54:40;;;;;;;;;;;;;;;;;;5043908;28;19925;-71
2021/11/08 09:57:23;;;;;;;;;;;;;;;;;;5042155;28;19920;-69
2021/11/08 09:59:53;;;;;;;;;;;;;;;;;;5040026;28;19940;-70
2021/11/08 10:02:31;;;;;;;;;;;;;;;;;;5035763;28;19925;-71
2021/11/08 10:04:58;;;;;;;;;;;;;;;;;;5020151;28;19932;-71
2021/11/08 10:07:30;;;;;;;;;;;;;;;;;;5047601;28;19928;-71
2021/11/08 10:10:13;;;;;;;;;;;;;;;;;;5038834;28;20015;-71
2021/11/08 10:12:42;;;;;;;;;;;;;;;;;;5039883;28;20218;-73
2021/11/08 10:15:13;;;;;;;;;;;;;;;;;;5041089;28;20390;-76
2021/11/08 10:17:44;;;;;;;;;;;;;;;;;;5040298;28;19932;-73
2021/11/08 10:20:14;;;;;;;;;;;;;;;;;;5041145;28;19920;-73
2021/11/08 10:22:45;;;;;;;;;;;;;;;;;;5037423;28;19921;-75
2021/11/08 10:25:15;;;;;;;;;;;;;;;;;;5038540;28;20221;-72
2021/11/08 10:27:46;;;;;;;;;;;;;;;;;;5044161;28;20356;-73
2021/11/08 10:30:29;;;;;;;;;;;;;;;;;;5036540;28;19920;-73
2021/11/08 10:33:00;;;;;;;;;;;;;;;;;;5041088;28;19924;-74
2021/11/08 10:35:32;;;;;;;;;;;;;;;;;;5039109;28;19931;-77
2021/11/08 10:38:03;;;;;;;;;;;;;;;;;;5045834;28;20340;-74
2021/11/08 10:40:33;;;;;;;;;;;;;;;;;;5058659;28;19925;-74
2021/11/08 10:43:18;;;;;;;;;;;;;;;;;;5049340;28;19920;-75
2021/11/08 10:45:54;;;;;;;;;;;;;;;;;;5055451;28;20038;-76
2021/11/08 10:48:24;;;;;;;;;;;;;;;;;;5040922;28;20336;-73
2021/11/08 10:50:54;;;;;;;;;;;;;;;;;;5060487;28;19920;-76
2021/11/08 10:53:24;;;;;;;;;;;;;;;;;;5068426;28;19920;-75
2021/11/08 10:55:53;;;;;;;;;;;;;;;;;;5058222;28;19926;-75
2021/11/08 10:58:22;;;;;;;;;;;;;;;;;;5055515;28;19931;-70
2021/11/08 11:00:53;;;;;;;;;;;;;;;;;;5070766;28;20227;-73
2021/11/08 11:03:23;;;;;;;;;;;;;;;;;;5062043;28;19927;-72
2021/11/08 11:05:52;;;;;;;;;;;;;;;;;;5062755;28;19920;-73
2021/11/08 11:08:21;;;;;;;;;;;;;;;;;;5039510;28;19920;-71
2021/11/08 11:10:52;;;;;;;;;;;;;;;;;;5075969;28;19920;-70
2021/11/08 11:13:21;;;;;;;;;;;;;;;;;;5062724;28;19928;-69
2021/11/08 11:15:50;;;;;;;;;;;;;;;;;;5070219;28;19929;-70
2021/11/08 11:18:21;;;;;;;;;;;;;;;;;;5061099;28;19921;-71
2021/11/08 11:20:52;;;;;;;;;;;;;;;;;;5066214;28;20389;-71
2021/11/08 11:23:26;;;;;;;;;;;;;;;;;;5066314;28;20391;-71
2021/11/08 11:26:04;;;;;;;;;;;;;;;;;;5051824;28;19924;-71
2021/11/08 11:28:35;;;;;;;;;;;;;;;;;;5061760;28;19928;-71
2021/11/08 11:31:19;;;;;;;;;;;;;;;;;;5062525;28;20009;-71
2021/11/08 11:33:49;;;;;;;;;;;;;;;;;;5062613;28;19927;-70
2021/11/08 11:36:19;;;;;;;;;;;;;;;;;;5057552;28;19928;-71
2021/11/08 11:38:48;;;;;;;;;;;;;;;;;;5056684;28;20381;-71
2021/11/08 11:41:18;;;;;;;;;;;;;;;;;;5059710;28;19931;-70
2021/11/08 11:44:01;;;;;;;;;;;;;;;;;;5063162;28;19987;-69
2021/11/08 11:46:32;;;;;;;;;;;;;;;;;;5057510;28;20319;-69
2021/11/08 11:49:05;;;;;;;;;;;;;;;;;;5056690;28;19925;-69
2021/11/08 11:51:35;;;;;;;;;;;;;;;;;;5063247;28;19981;-73
2021/11/08 11:54:07;;;;;;;;;;;;;;;;;;5052358;28;19929;-70
2021/11/08 11:56:41;;;;;;;;;;;;;;;;;;5044696;28;19927;-69
2021/11/08 11:59:11;;;;;;;;;;;;;;;;;;5057363;28;19935;-70
2021/11/08 12:01:44;;;;;;;;;;;;;;;;;;5062185;28;19920;-69
2021/11/08 12:04:29;;;;;;;;;;;;;;;;;;5066140;28;19950;-69
2021/11/08 12:07:02;;;;;;;;;;;;;;;;;;5081147;28;20015;-69
2021/11/08 12:09:34;;;;;;;;;;;;;;;;;;5064343;28;19931;-70
2021/11/08 12:12:08;;;;;;;;;;;;;;;;;;5068915;28;19936;-71
2021/11/08 12:14:38;;;;;;;;;;;;;;;;;;5063911;28;19924;-73
2021/11/08 12:17:08;;;;;;;;;;;;;;;;;;5058952;28;19977;-72
2021/11/08 12:19:39;;;;;;;;;;;;;;;;;;5063835;28;19929;-75
2021/11/08 12:22:08;;;;;;;;;;;;;;;;;;5057400;28;20371;-74
2021/11/08 12:24:41;;;;;;;;;;;;;;;;;;5055781;28;19935;-73
2021/11/08 12:27:12;;;;;;;;;;;;;;;;;;5065882;28;19932;-72
2021/11/08 12:29:42;;;;;;;;;;;;;;;;;;5062726;28;19920;-73
2021/11/08 12:32:12;;;;;;;;;;;;;;;;;;5070774;28;19924;-73
2021/11/08 12:34:58;;;;;;;;;;;;;;;;;;5056371;28;20338;-73
2021/11/08 12:37:29;;;;;;;;;;;;;;;;;;5061974;28;19924;-75
2021/11/08 12:39:58;;;;;;;;;;;;;;;;;;5064401;28;19921;-72
2021/11/08 12:42:29;;;;;;;;;;;;;;;;;;5065817;28;19928;-73
2021/11/08 12:44:56;;;;;;;;;;;;;;;;;;5055723;28;19932;-72
2021/11/08 12:47:37;;;;;;;;;;;;;;;;;;5063307;28;19921;-72
2021/11/08 12:50:08;;;;;;;;;;;;;;;;;;5059554;28;19921;-71
2021/11/08 12:52:43;;;;;;;;;;;;;;;;;;5060989;28;19947;-72
2021/11/08 12:55:19;;;;;;;;;;;;;;;;;;5064709;28;19970;-70
2021/11/08 12:58:00;;;;;;;;;;;;;;;;;;5061967;28;19924;-73
2021/11/08 13:00:29;;;;;;;;;;;;;;;;;;5042028;28;19921;-74
2021/11/08 13:03:03;;;;;;;;;;;;;;;;;;5065326;28;19927;-70
2021/11/08 13:05:35;;;;;;;;;;;;;;;;;;5061247;28;19925;-70
2021/11/08 13:08:05;;;;;;;;;;;;;;;;;;5062105;28;19924;-72
2021/11/08 13:10:35;;;;;;;;;;;;;;;;;;5036432;28;20417;-70
2021/11/08 13:13:08;;;;;;;;;;;;;;;;;;5058803;28;19928;-71
2021/11/08 13:15:38;;;;;;;;;;;;;;;;;;5062867;28;19925;-72
2021/11/08 13:18:08;;;;;;;;;;;;;;;;;;5059135;28;19924;-72
2021/11/08 13:20:40;;;;;;;;;;;;;;;;;;5054371;28;20814;-73
2021/11/08 13:23:10;;;;;;;;;;;;;;;;;;5060496;28;20046;-72
2021/11/08 13:25:42;;;;;;;;;;;;;;;;;;5057731;28;19924;-71
2021/11/08 13:28:13;;;;;;;;;;;;;;;;;;5044473;28;19990;-72
2021/11/08 13:30:42;;;;;;;;;;;;;;;;;;5061102;28;19928;-71
2021/11/08 13:33:09;;;;;;;;;;;;;;;;;;5056638;28;19920;-72
2021/11/08 13:35:45;;;;;;;;;;;;;;;;;;5057800;28;19940;-73
2021/11/08 13:38:14;;;;;;;;;;;;;;;;;;5042029;28;20348;-73
2021/11/08 13:40:44;;;;;;;;;;;;;;;;;;5039389;28;20388;-71
2021/11/08 13:43:20;;;;;;;;;;;;;;;;;;5035349;28;19924;-72
2021/11/08 13:45:49;;;;;;;;;;;;;;;;;;5033765;28;19920;-72
2021/11/08 13:48:21;;;;;;;;;;;;;;;;;;5039105;28;19936;-72
2021/11/08 13:50:52;;;;;;;;;;;;;;;;;;5039629;28;19936;-73
2021/11/08 13:53:21;;;;;;;;;;;;;;;;;;5035828;28;20031;-74
2021/11/08 13:55:50;;;;;;;;;;;;;;;;;;5041540;28;19928;-72
2021/11/08 13:58:21;;;;;;;;;;;;;;;;;;5022527;28;19924;-73
2021/11/08 14:00:52;;;;;;;;;;;;;;;;;;5033034;28;19921;-72
2021/11/08 14:03:23;;;;;;;;;;;;;;;;;;5036607;28;19921;-72
2021/11/08 14:05:52;;;;;;;;;;;;;;;;;;5039330;28;19982;-71
2021/11/08 14:08:22;;;;;;;;;;;;;;;;;;5028167;28;19931;-71
2021/11/08 14:10:52;;;;;;;;;;;;;;;;;;5040570;28;20367;-73
2021/11/08 14:13:21;;;;;;;;;;;;;;;;;;5030549;28;19929;-73
2021/11/08 14:15:54;;;;;;;;;;;;;;;;;;5031716;28;19928;-73
2021/11/08 14:18:24;;;;;;;;;;;;;;;;;;5032903;28;19967;-74
2021/11/08 14:20:54;;;;;;;;;;;;;;;;;;5036328;28;19928;-75
2021/11/08 14:23:27;;;;;;;;;;;;;;;;;;5021851;28;19925;-71
2021/11/08 14:25:56;;;;;;;;;;;;;;;;;;5038486;28;19927;-70
2021/11/08 14:28:27;;;;;;;;;;;;;;;;;;5041563;28;19928;-73
2021/11/08 14:30:54;;;;;;;;;;;;;;;;;;5021444;28;19978;-73
2021/11/08 14:33:24;;;;;;;;;;;;;;;;;;5032215;28;19925;-74
2021/11/08 14:35:53;;;;;;;;;;;;;;;;;;5022778;28;19929;-72
2021/11/08 14:38:24;;;;;;;;;;;;;;;;;;5057367;28;19920;-72
2021/11/08 14:40:54;;;;;;;;;;;;;;;;;;5060458;28;19920;-73
2021/11/08 14:43:25;;;;;;;;;;;;;;;;;;5045069;28;20466;-73
2021/11/08 14:45:55;;;;;;;;;;;;;;;;;;5058638;28;19925;-72
2021/11/08 14:48:28;;;;;;;;;;;;;;;;;;5062519;28;20323;-72
2021/11/08 14:51:14;;;;;;;;;;;;;;;;;;5046452;28;20456;-72
2021/11/08 14:53:45;;;;;;;;;;;;;;;;;;5063785;28;19921;-72
2021/11/08 14:56:15;;;;;;;;;;;;;;;;;;5044981;28;19921;-75
2021/11/08 14:58:43;;;;;;;;;;;;;;;;;;5033557;28;19931;-75
2021/11/08 15:01:14;;;;;;;;;;;;;;;;;;5058017;28;19921;-71
2021/11/08 15:03:44;;;;;;;;;;;;;;;;;;5063344;28;19920;-74
2021/11/08 15:06:24;;;;;;;;;;;;;;;;;;5059787;28;19928;-73
2021/11/08 15:08:53;;;;;;;;;;;;;;;;;;5052607;28;19928;-71
2021/11/08 15:11:22;;;;;;;;;;;;;;;;;;5055768;28;19928;-73
2021/11/08 15:13:54;;;;;;;;;;;;;;;;;;5056863;28;19925;-74
2021/11/08 15:16:27;;;;;;;;;;;;;;;;;;5052248;28;19928;-73
2021/11/08 15:18:59;;;;;;;;;;;;;;;;;;5065180;28;19924;-73
2021/11/08 15:21:32;;;;;;;;;;;;;;;;;;5060395;28;19920;-73
2021/11/08 15:24:03;;;;;;;;;;;;;;;;;;5055472;28;19954;-74
2021/11/08 15:26:33;;;;;;;;;;;;;;;;;;5053188;28;19936;-75
2021/11/08 15:29:11;;;;;;;;;;;;;;;;;;5062181;28;19920;-76
2021/11/08 15:31:41;;;;;;;;;;;;;;;;;;5065966;28;19997;-74
2021/11/08 15:34:17;;;;;;;;;;;;;;;;;;5055089;28;20259;-75
2021/11/08 15:36:50;;;;;;;;;;;;;;;;;;5060477;28;19921;-76
2021/11/08 15:39:28;;;;;;;;;;;;;;;;;;5056138;28;20043;-78
2021/11/08 15:41:58;;;;;;;;;;;;;;;;;;5058584;28;19924;-73
2021/11/08 15:44:40;;;;;;;;;;;;;;;;;;5047369;28;20458;-77
2021/11/08 15:47:11;;;;;;;;;;;;;;;;;;5047195;28;20347;-76
2021/11/08 15:49:42;;;;;;;;;;;;;;;;;;5056881;28;19924;-76
2021/11/08 15:52:11;;;;;;;;;;;;;;;;;;5060156;28;20389;-76
2021/11/08 15:54:40;;;;;;;;;;;;;;;;;;5055502;28;20682;-74
2021/11/08 15:57:11;;;;;;;;;;;;;;;;;;5050172;28;19927;-74
2021/11/08 15:59:59;;;;;;;;;;;;;;;;;;5062961;28;19928;-73
2021/11/08 16:02:36;;;;;;;;;;;;;;;;;;5051384;28;19928;-72
2021/11/08 16:08:28;;;;;;;;;;;;;;;;;;5047800;28;19913;-77
2021/11/08 16:10:59;;;;;;;;;;;;;;;;;;5065454;28;20603;-76
2021/11/08 16:13:26;;;;;;;;;;;;;;;;;;5059634;28;19989;-76
2021/11/08 16:15:57;;;;;;;;;;;;;;;;;;5054666;28;19920;-75
2021/11/08 16:18:28;;;;;;;;;;;;;;;;;;5058494;28;20411;-73
2021/11/08 16:20:59;;;;;;;;;;;;;;;;;;5061260;28;19924;-73
2021/11/08 16:23:28;;;;;;;;;;;;;;;;;;5055825;28;19924;-72
2021/11/08 16:26:06;;;;;;;;;;;;;;;;;;5059395;28;19977;-72
2021/11/08 16:28:38;;;;;;;;;;;;;;;;;;5060257;28;19928;-73
2021/11/08 16:31:07;;;;;;;;;;;;;;;;;;5067061;28;19998;-72
2021/11/08 16:33:38;;;;;;;;;;;;;;;;;;5061379;28;20461;-72
2021/11/08 16:36:07;;;;;;;;;;;;;;;;;;5063508;28;20003;-73
2021/11/08 16:38:41;;;;;;;;;;;;;;;;;;5060974;28;19920;-73
2021/11/08 16:41:12;;;;;;;;;;;;;;;;;;5065333;28;19920;-73
2021/11/08 16:43:43;;;;;;;;;;;;;;;;;;5064332;28;19928;-73
2021/11/08 16:46:14;;;;;;;;;;;;;;;;;;5060576;28;19931;-73
2021/11/08 16:48:47;;;;;;;;;;;;;;;;;;5059817;28;19928;-73
2021/11/08 16:51:19;;;;;;;;;;;;;;;;;;5068580;28;19920;-73
2021/11/08 16:53:49;;;;;;;;;;;;;;;;;;5064912;28;19936;-73
2021/11/08 16:56:18;;;;;;;;;;;;;;;;;;5055709;28;19989;-72
2021/11/08 16:58:48;;;;;;;;;;;;;;;;;;5060127;28;19921;-73
2021/11/08 17:01:19;;;;;;;;;;;;;;;;;;5060529;28;19921;-72
2021/11/08 17:03:51;;;;;;;;;;;;;;;;;;5060772;28;19924;-73
2021/11/08 17:06:46;;;;;;;;;;;;;;;;;;5065580;28;20315;-73
2021/11/08 17:09:23;;;;;;;;;;;;;;;;;;5055914;28;19928;-73
2021/11/08 17:14:48;;;;;;;;;;;;;;;;;;5059187;28;20255;-72
2021/11/08 17:17:24;;;;;;;;;;;;;;;;;;5066023;28;19921;-72
2021/11/08 17:19:55;;;;;;;;;;;;;;;;;;5063368;28;19924;-72
2021/11/08 17:22:25;;;;;;;;;;;;;;;;;;5058283;28;19946;-72
2021/11/08 17:24:54;;;;;;;;;;;;;;;;;;5055042;28;19921;-72
2021/11/08 17:27:26;;;;;;;;;;;;;;;;;;5062736;28;19932;-72
2021/11/08 17:29:58;;;;;;;;;;;;;;;;;;5062028;28;19931;-72
2021/11/08 17:32:25;;;;;;;;;;;;;;;;;;5056826;28;19924;-72
2021/11/08 17:34:56;;;;;;;;;;;;;;;;;;5060257;28;19928;-72
2021/11/08 17:37:33;;;;;;;;;;;;;;;;;;5061597;28;20491;-72
2021/11/08 17:40:13;;;;;;;;;;;;;;;;;;5061926;28;20005;-72
2021/11/08 17:42:41;;;;;;;;;;;;;;;;;;5061321;28;19931;-72
2021/11/08 17:45:10;;;;;;;;;;;;;;;;;;5058148;28;19928;-72
2021/11/08 17:47:39;;;;;;;;;;;;;;;;;;5054305;28;19924;-72
2021/11/08 17:50:09;;;;;;;;;;;;;;;;;;5062637;28;19920;-72
2021/11/08 17:52:41;;;;;;;;;;;;;;;;;;5050756;28;19928;-72
2021/11/08 17:55:11;;;;;;;;;;;;;;;;;;5061673;28;19924;-72
2021/11/08 17:57:45;;;;;;;;;;;;;;;;;;5056490;28;19928;-72
2021/11/08 18:00:14;;;;;;;;;;;;;;;;;;5064731;28;19924;-72
2021/11/08 18:02:42;;;;;;;;;;;;;;;;;;5057656;28;19936;-72
2021/11/08 18:05:15;;;;;;;;;;;;;;;;;;5064639;28;19928;-72
2021/11/08 18:07:49;;;;;;;;;;;;;;;;;;5058010;28;19920;-73
2021/11/08 18:10:18;;;;;;;;;;;;;;;;;;5065012;28;19924;-72
2021/11/08 18:12:47;;;;;;;;;;;;;;;;;;5056246;28;20343;-72
2021/11/08 18:15:16;;;;;;;;;;;;;;;;;;5062307;28;19924;-73
2021/11/08 18:17:47;;;;;;;;;;;;;;;;;;5057124;28;19925;-72
2021/11/08 18:20:31;;;;;;;;;;;;;;;;;;5048884;28;19974;-72
2021/11/08 18:28:19;;;;;;;;;;;;;;;;;;5056996;28;20409;-72
2021/11/08 18:30:51;;;;;;;;;;;;;;;;;;5056680;28;19921;-72
2021/11/08 18:33:28;;;;;;;;;;;;;;;;;;5047290;28;20048;-72
2021/11/08 18:36:00;;;;;;;;;;;;;;;;;;5060738;28;19925;-72